createdAt,value
2023-02-17T00:01:25.465Z,12.55
2023-02-17T00:03:54.687Z,10.63
2023-02-17T00:06:30.399Z,10.93
2023-02-17T00:08:58.076Z,8.05
2023-02-17T00:11:25.050Z,9.85
2023-02-17T00:13:53.977Z,10.07
2023-02-17T00:16:27.090Z,12.88
2023-02-17T00:18:56.942Z,10.05
2023-02-17T00:21:27.632Z,11.35
2023-02-17T00:23:54.409Z,11.40
2023-02-17T00:26:21.688Z,11.50
2023-02-17T00:28:49.614Z,12.57
2023-02-17T00:31:22.821Z,12.18
2023-02-17T00:33:49.644Z,11.75
2023-02-17T00:36:21.976Z,8.63
2023-02-17T00:38:49.551Z,9.32
2023-02-17T00:41:17.496Z,15.07
2023-02-17T00:43:44.255Z,13.80
2023-02-17T00:46:10.916Z,9.48
2023-02-17T00:48:37.667Z,13.60
2023-02-17T00:51:04.557Z,11.25
2023-02-17T00:53:33.571Z,18.17
2023-02-17T00:56:05.835Z,12.75
2023-02-17T00:58:32.667Z,12.60
2023-02-17T01:00:59.478Z,12.38
2023-02-17T01:03:27.601Z,14.48
2023-02-17T01:05:59.444Z,10.63
2023-02-17T01:08:28.439Z,13.95
2023-02-17T01:10:55.152Z,10.60
2023-02-17T01:13:24.107Z,12.07
2023-02-17T01:15:56.836Z,14.70
2023-02-17T01:18:24.834Z,12.48
2023-02-17T01:20:54.467Z,8.77
2023-02-17T01:23:21.587Z,12.13
2023-02-17T01:25:50.567Z,13.98
2023-02-17T01:28:20.423Z,11.48
2023-02-17T01:30:48.297Z,19.80
2023-02-17T01:33:17.445Z,13.07
2023-02-17T01:35:44.060Z,13.70
2023-02-17T01:38:10.854Z,12.93
2023-02-17T01:40:37.602Z,11.32
2023-02-17T01:43:06.608Z,14.02
2023-02-17T01:45:36.393Z,18.15
2023-02-17T01:48:06.219Z,13.23
2023-02-17T01:50:44.031Z,14.25
2023-02-17T01:53:14.620Z,13.35
2023-02-17T01:55:44.521Z,16.83
2023-02-17T01:58:15.821Z,13.32
2023-02-17T02:00:43.207Z,16.95
2023-02-17T02:03:12.944Z,14.43
2023-02-17T02:05:41.150Z,11.05
2023-02-17T02:08:10.314Z,15.68
2023-02-17T02:10:37.167Z,11.13
2023-02-17T02:13:04.333Z,11.45
2023-02-17T02:15:44.268Z,20.58
2023-02-17T02:18:32.887Z,10.95
2023-02-17T02:21:39.092Z,14.25
2023-02-17T02:24:30.098Z,15.40
2023-02-17T02:27:24.284Z,10.15
2023-02-17T02:30:03.929Z,14.95
2023-02-17T02:32:48.622Z,13.85
2023-02-17T02:35:36.241Z,16.08
2023-02-17T02:38:10.536Z,14.13
2023-02-17T02:40:44.660Z,17.08
2023-02-17T02:43:12.384Z,13.00
2023-02-17T02:45:43.769Z,10.25
2023-02-17T02:48:10.493Z,12.05
2023-02-17T02:50:52.450Z,17.02
2023-02-17T02:53:37.123Z,16.90
2023-02-17T02:56:31.108Z,14.25
2023-02-17T02:59:35.483Z,11.00
2023-02-17T03:02:02.136Z,15.13
2023-02-17T03:04:37.008Z,10.35
2023-02-17T03:07:11.641Z,12.13
2023-02-17T03:09:39.224Z,14.00
2023-02-17T03:12:06.872Z,13.30
2023-02-17T03:14:37.537Z,9.88
2023-02-17T03:17:06.467Z,12.50
2023-02-17T03:19:35.499Z,12.52
2023-02-17T03:22:09.792Z,12.75
2023-02-17T03:24:36.415Z,12.40
2023-02-17T03:27:03.176Z,10.32
2023-02-17T03:29:30.644Z,11.68
2023-02-17T03:31:57.362Z,13.07
2023-02-17T03:34:26.675Z,12.27
2023-02-17T03:36:53.443Z,11.30
2023-02-17T03:39:20.297Z,13.10
2023-02-17T03:41:50.400Z,12.05
2023-02-17T03:44:18.209Z,14.98
2023-02-17T03:46:46.173Z,10.80
2023-02-17T03:49:15.457Z,10.32
2023-02-17T03:51:42.196Z,11.70
2023-02-17T03:54:08.917Z,10.02
2023-02-17T03:56:35.637Z,12.02
2023-02-17T03:59:02.389Z,13.90
2023-02-17T04:01:29.059Z,11.52
2023-02-17T04:03:58.578Z,14.07
2023-02-17T04:06:25.391Z,17.55
2023-02-17T04:08:52.254Z,13.60
2023-02-17T04:11:18.890Z,13.73
2023-02-17T04:13:45.628Z,12.90
2023-02-17T04:16:14.579Z,11.25
2023-02-17T04:18:41.206Z,10.90
2023-02-17T04:21:08.083Z,15.07
2023-02-17T04:23:36.960Z,13.77
2023-02-17T04:26:06.598Z,11.52
2023-02-17T04:28:33.972Z,15.18
2023-02-17T04:31:00.756Z,13.63
2023-02-17T04:33:27.543Z,15.23
2023-02-17T04:35:59.583Z,14.85
2023-02-17T04:38:28.038Z,17.60
2023-02-17T04:40:58.455Z,10.13
2023-02-17T04:43:26.545Z,15.02
2023-02-17T04:45:54.360Z,12.57
2023-02-17T04:48:21.287Z,13.82
2023-02-17T04:50:47.950Z,11.57
2023-02-17T04:53:14.861Z,14.00
2023-02-17T04:55:42.384Z,12.05
2023-02-17T04:58:09.538Z,10.55
2023-02-17T05:00:38.854Z,13.38
2023-02-17T05:03:05.561Z,11.75
2023-02-17T05:05:32.239Z,12.43
2023-02-17T05:08:01.327Z,16.40
2023-02-17T05:10:28.180Z,10.85
2023-02-17T05:12:54.879Z,15.45
2023-02-17T05:15:24.062Z,11.13
2023-02-17T05:17:53.410Z,12.60
2023-02-17T05:20:20.115Z,9.90
2023-02-17T05:22:46.782Z,14.82
2023-02-17T05:25:16.048Z,9.32
2023-02-17T05:27:42.759Z,12.77
2023-02-17T05:30:09.890Z,11.38
2023-02-17T05:32:36.612Z,13.10
2023-02-17T05:35:03.323Z,15.32
2023-02-17T05:37:30.018Z,11.85
2023-02-17T05:39:59.482Z,16.85
2023-02-17T05:42:28.985Z,15.15
2023-02-17T05:45:01.514Z,16.35
2023-02-17T05:47:28.308Z,15.75
2023-02-17T05:49:54.998Z,11.73
2023-02-17T05:52:23.904Z,13.75
2023-02-17T05:54:52.784Z,13.95
2023-02-17T05:57:19.444Z,12.60
2023-02-17T05:59:46.220Z,10.25
2023-02-17T06:02:12.880Z,10.60
2023-02-17T06:04:44.308Z,10.18
2023-02-17T06:07:11.117Z,10.35
2023-02-17T06:09:37.814Z,9.68
2023-02-17T06:12:07.005Z,10.02
2023-02-17T06:14:33.624Z,12.43
2023-02-17T06:17:04.020Z,12.55
2023-02-17T06:19:30.996Z,13.05
2023-02-17T06:21:57.897Z,15.02
2023-02-17T06:24:25.109Z,11.98
2023-02-17T06:26:54.046Z,10.73
2023-02-17T06:29:20.721Z,11.63
2023-02-17T06:31:47.440Z,9.55
2023-02-17T06:34:14.359Z,14.90
2023-02-17T06:36:41.034Z,15.27
2023-02-17T06:39:07.693Z,13.23
2023-02-17T06:41:34.344Z,13.25
2023-02-17T06:44:01.035Z,12.45
2023-02-17T06:46:27.717Z,14.10
2023-02-17T06:48:54.434Z,12.52
2023-02-17T06:51:21.117Z,18.20
2023-02-17T06:53:47.742Z,15.75
2023-02-17T06:56:16.884Z,11.77
2023-02-17T06:58:43.553Z,16.10
2023-02-17T07:01:21.104Z,17.15
2023-02-17T07:03:50.552Z,13.05
2023-02-17T07:06:19.646Z,13.80
2023-02-17T07:08:46.443Z,15.57
2023-02-17T07:11:16.636Z,14.07
2023-02-17T07:13:44.110Z,12.35
2023-02-17T07:16:13.011Z,18.02
2023-02-17T07:18:39.905Z,14.13
2023-02-17T07:21:08.861Z,13.27
2023-02-17T07:23:38.344Z,13.68
2023-02-17T07:26:10.277Z,13.23
2023-02-17T07:28:38.131Z,12.35
2023-02-17T07:31:13.215Z,10.93
2023-02-17T07:33:43.088Z,16.77
2023-02-17T07:36:12.200Z,10.07
2023-02-17T07:38:39.877Z,12.35
2023-02-17T07:41:15.033Z,12.98
2023-02-17T07:43:42.343Z,9.68
2023-02-17T07:46:10.514Z,9.55
2023-02-17T07:48:37.467Z,11.07
2023-02-17T07:51:09.535Z,9.52
2023-02-17T07:53:36.530Z,9.07
2023-02-17T07:56:11.551Z,9.88
2023-02-17T07:58:39.881Z,9.00
2023-02-17T08:01:23.972Z,4.85
2023-02-17T08:06:22.988Z,6.50
2023-02-17T08:09:12.383Z,6.63
2023-02-17T08:12:00.893Z,4.70
2023-02-17T08:14:29.850Z,9.40
2023-02-17T08:16:57.483Z,9.73
2023-02-17T08:19:39.529Z,6.80
2023-02-17T08:22:13.149Z,6.00
2023-02-17T08:24:39.812Z,6.45
2023-02-17T08:27:06.514Z,6.68
2023-02-17T08:29:33.143Z,4.95
2023-02-17T08:31:59.962Z,5.80
2023-02-17T08:34:27.923Z,5.38
2023-02-17T08:36:54.694Z,9.13
2023-02-17T08:39:21.407Z,3.53
2023-02-17T08:41:50.887Z,6.18
2023-02-17T08:44:20.843Z,8.35
2023-02-17T08:46:51.308Z,6.60
2023-02-17T08:49:27.002Z,9.43
2023-02-17T08:51:56.168Z,8.48
2023-02-17T08:54:25.237Z,11.13
2023-02-17T08:56:54.659Z,10.18
2023-02-17T08:59:21.526Z,7.30
2023-02-17T09:01:48.309Z,6.72
2023-02-17T09:04:15.861Z,6.82
2023-02-17T09:06:49.058Z,9.63
2023-02-17T09:09:18.186Z,10.57
2023-02-17T09:11:45.539Z,5.18
2023-02-17T09:14:12.534Z,6.50
2023-02-17T09:16:42.274Z,7.30
2023-02-17T09:19:09.037Z,8.23
2023-02-17T09:21:35.842Z,6.63
2023-02-17T09:24:02.735Z,8.30
2023-02-17T09:26:29.728Z,9.32
2023-02-17T09:28:59.045Z,6.07
2023-02-17T09:31:29.484Z,5.63
2023-02-17T09:33:57.119Z,9.30
2023-02-17T09:36:32.723Z,5.45
2023-02-17T09:38:59.780Z,8.05
2023-02-17T09:41:59.271Z,4.90
2023-02-17T09:44:32.276Z,3.45
2023-02-17T09:47:09.421Z,5.63
2023-02-17T09:49:45.388Z,8.95
2023-02-17T09:52:22.626Z,5.53
2023-02-17T09:55:05.984Z,3.97
2023-02-17T09:57:42.432Z,5.88
2023-02-17T10:00:25.326Z,5.18
2023-02-17T10:03:15.922Z,3.67
2023-02-17T10:05:53.294Z,3.72
2023-02-17T10:08:25.661Z,5.60
2023-02-17T10:11:10.649Z,4.80
2023-02-17T10:13:43.358Z,4.47
2023-02-17T10:16:18.439Z,8.00
2023-02-17T10:18:58.892Z,5.55
2023-02-17T10:21:32.736Z,4.40
2023-02-17T10:26:48.616Z,4.40
2023-02-17T10:29:20.930Z,1.80
2023-02-17T10:32:17.178Z,3.78
2023-02-17T10:35:13.060Z,3.25
2023-02-17T10:37:48.289Z,3.15
2023-02-17T10:40:28.964Z,3.28
2023-02-17T10:43:07.410Z,4.18
2023-02-17T10:45:44.113Z,2.75
2023-02-17T10:48:21.652Z,2.75
2023-02-17T10:50:49.096Z,2.58
2023-02-17T10:53:28.167Z,2.85
2023-02-17T10:56:23.249Z,2.30
2023-02-17T10:59:14.445Z,1.73
2023-02-17T11:01:41.721Z,2.88
2023-02-17T11:04:14.034Z,3.55
2023-02-17T11:06:51.908Z,3.15
2023-02-17T11:09:23.423Z,4.95
2023-02-17T11:12:02.100Z,3.35
2023-02-17T11:14:33.355Z,2.75
2023-02-17T11:17:02.933Z,2.92
2023-02-17T11:19:35.269Z,4.95
2023-02-17T11:22:05.611Z,5.03
2023-02-17T11:24:34.727Z,1.98
2023-02-17T11:27:09.818Z,2.13
2023-02-17T11:29:36.625Z,3.58
2023-02-17T11:32:08.837Z,3.13
2023-02-17T11:34:37.884Z,2.95
2023-02-17T11:37:13.851Z,6.07
2023-02-17T11:39:44.877Z,3.83
2023-02-17T11:42:24.416Z,4.75
2023-02-17T11:44:56.194Z,4.53
2023-02-17T11:48:04.982Z,2.83
2023-02-17T11:50:46.290Z,2.95
2023-02-17T11:53:33.200Z,3.25
2023-02-17T11:56:13.700Z,2.90
2023-02-17T11:59:14.139Z,2.92
2023-02-17T12:01:49.978Z,7.75
2023-02-17T12:04:34.345Z,3.40
2023-02-17T12:07:19.676Z,2.25
2023-02-17T12:10:16.334Z,2.97
2023-02-17T12:12:46.166Z,4.60
2023-02-17T12:15:27.277Z,4.35
2023-02-17T12:17:57.168Z,3.58
2023-02-17T12:21:04.555Z,3.97
2023-02-17T12:23:53.070Z,3.50
2023-02-17T12:26:33.769Z,3.83
2023-02-17T12:29:12.195Z,6.03
2023-02-17T12:31:50.916Z,3.92
2023-02-17T12:34:34.525Z,5.47
2023-02-17T12:37:02.077Z,3.88
2023-02-17T12:40:03.368Z,3.83
2023-02-17T12:42:37.213Z,4.88
2023-02-17T12:48:03.769Z,6.05
2023-02-17T12:50:42.017Z,3.25
2023-02-17T12:53:24.902Z,4.10
2023-02-17T12:55:59.179Z,4.97
2023-02-17T12:58:32.577Z,3.85
2023-02-17T13:01:15.340Z,4.88
2023-02-17T13:03:42.231Z,3.13
2023-02-17T13:06:20.916Z,5.43
2023-02-17T13:09:02.853Z,6.70
2023-02-17T13:11:35.166Z,4.55
2023-02-17T13:14:25.792Z,6.90
2023-02-17T13:16:52.946Z,5.60
2023-02-17T13:19:30.945Z,3.05
2023-02-17T13:21:59.994Z,5.05
2023-02-17T13:24:34.747Z,5.32
2023-02-17T13:27:22.769Z,3.20
2023-02-17T13:30:22.029Z,7.18
2023-02-17T13:33:04.324Z,3.53
2023-02-17T13:35:39.207Z,4.22
2023-02-17T13:38:06.333Z,4.85
2023-02-17T13:40:36.881Z,9.35
2023-02-17T13:43:20.261Z,6.13
2023-02-17T13:45:57.318Z,4.82
2023-02-17T13:48:29.684Z,3.28
2023-02-17T13:51:04.947Z,8.15
2023-02-17T13:53:37.221Z,5.10
2023-02-17T13:56:07.806Z,3.97
2023-02-17T13:58:40.758Z,5.75
2023-02-17T14:01:17.800Z,5.85
2023-02-17T14:03:52.861Z,6.03
2023-02-17T14:06:29.478Z,4.57
2023-02-17T14:08:59.022Z,4.18
2023-02-17T14:11:33.112Z,5.30
2023-02-17T14:14:00.943Z,7.18
2023-02-17T14:16:31.585Z,6.03
2023-02-17T14:19:11.350Z,5.22
2023-02-17T14:21:45.414Z,5.90
2023-02-17T14:24:44.717Z,4.15
2023-02-17T14:27:14.264Z,4.07
2023-02-17T14:29:50.226Z,5.38
2023-02-17T14:32:37.801Z,4.82
2023-02-17T14:35:13.160Z,5.32
2023-02-17T14:37:42.058Z,8.63
2023-02-17T14:40:23.609Z,7.63
2023-02-17T14:42:51.391Z,10.93
2023-02-17T14:45:19.006Z,9.43
2023-02-17T14:47:46.591Z,9.07
2023-02-17T14:50:17.459Z,10.95
2023-02-17T14:52:48.786Z,6.75
2023-02-17T14:55:26.585Z,6.57
2023-02-17T14:57:54.052Z,8.07
2023-02-17T15:00:20.958Z,8.25
2023-02-17T15:02:52.708Z,6.72
2023-02-17T15:05:19.649Z,9.15
2023-02-17T15:07:49.476Z,7.43
2023-02-17T15:10:27.431Z,11.40
2023-02-17T15:12:59.266Z,8.23
2023-02-17T15:15:26.035Z,6.97
2023-02-17T15:17:55.129Z,7.88
2023-02-17T15:20:21.807Z,7.85
2023-02-17T15:22:52.700Z,9.82
2023-02-17T15:25:23.732Z,12.70
2023-02-17T15:27:51.055Z,8.15
2023-02-17T15:30:21.005Z,12.93
2023-02-17T15:32:47.801Z,8.95
2023-02-17T15:35:22.590Z,10.30
2023-02-17T15:37:50.166Z,9.93
2023-02-17T15:40:24.632Z,9.27
2023-02-17T15:42:56.251Z,10.85
2023-02-17T15:45:23.921Z,6.78
2023-02-17T15:47:52.548Z,11.13
2023-02-17T15:50:22.953Z,10.30
2023-02-17T15:52:50.823Z,11.43
2023-02-17T15:55:23.408Z,9.05
2023-02-17T15:57:54.504Z,9.85
2023-02-17T16:00:29.066Z,10.45
2023-02-17T16:02:58.523Z,11.27
2023-02-17T16:05:33.524Z,17.00
2023-02-17T16:08:02.744Z,13.75
2023-02-17T16:10:30.400Z,11.20
2023-02-17T16:12:59.371Z,9.75
2023-02-17T16:15:30.514Z,9.90
2023-02-17T16:18:00.191Z,13.18
2023-02-17T16:20:30.531Z,9.77
2023-02-17T16:22:57.419Z,11.43
2023-02-17T16:25:24.458Z,9.15
2023-02-17T16:27:53.224Z,10.73
2023-02-17T16:30:28.556Z,9.40
2023-02-17T16:32:57.964Z,11.85
2023-02-17T16:35:28.261Z,12.73
2023-02-17T16:38:12.741Z,10.77
2023-02-17T16:40:47.206Z,9.52
2023-02-17T16:43:21.185Z,11.73
2023-02-17T16:45:57.750Z,12.73
2023-02-17T16:48:27.704Z,9.68
2023-02-17T16:50:54.514Z,11.00
2023-02-17T16:53:21.564Z,9.65
2023-02-17T16:55:50.756Z,11.18
2023-02-17T16:58:25.374Z,11.68
2023-02-17T17:00:54.374Z,10.10
2023-02-17T17:03:22.502Z,10.10
2023-02-17T17:05:51.530Z,10.35
2023-02-17T17:08:20.630Z,10.18
2023-02-17T17:10:49.337Z,8.43
2023-02-17T17:13:18.603Z,9.38
2023-02-17T17:15:46.013Z,9.23
2023-02-17T17:18:21.553Z,10.10
2023-02-17T17:20:48.672Z,11.32
2023-02-17T17:23:15.753Z,13.27
2023-02-17T17:25:48.423Z,9.23
2023-02-17T17:28:20.282Z,12.45
2023-02-17T17:30:49.718Z,9.98
2023-02-17T17:33:16.556Z,11.27
2023-02-17T17:35:43.351Z,7.40
2023-02-17T17:38:14.309Z,12.23
2023-02-17T17:40:49.860Z,8.60
2023-02-17T17:43:21.274Z,9.55
2023-02-17T17:45:49.818Z,8.95
2023-02-17T17:48:20.000Z,9.15
2023-02-17T17:50:50.489Z,7.45
2023-02-17T17:53:17.222Z,7.07
2023-02-17T17:55:43.920Z,6.75
2023-02-17T17:58:10.640Z,6.13
2023-02-17T18:00:39.926Z,6.72
2023-02-17T18:03:08.775Z,7.22
2023-02-17T18:05:36.792Z,4.78
2023-02-17T18:08:04.681Z,4.57
2023-02-17T18:10:36.112Z,6.15
2023-02-17T18:13:02.973Z,4.80
2023-02-17T18:15:31.952Z,3.72
2023-02-17T18:18:00.938Z,5.88
2023-02-17T18:20:30.082Z,4.40
2023-02-17T18:22:56.802Z,5.00
2023-02-17T18:25:24.087Z,5.10
2023-02-17T18:27:53.139Z,4.32
2023-02-17T18:30:21.287Z,4.82
2023-02-17T18:32:48.469Z,7.00
2023-02-17T18:35:16.046Z,4.32
2023-02-17T18:37:46.021Z,4.68
2023-02-17T18:40:18.178Z,2.85
2023-02-17T18:42:49.595Z,1.80
2023-02-17T18:45:17.160Z,2.97
2023-02-17T18:47:46.220Z,2.65
2023-02-17T18:50:14.124Z,2.55
2023-02-17T18:52:42.058Z,3.45
2023-02-17T18:55:12.600Z,2.00
2023-02-17T18:57:42.854Z,2.97
2023-02-17T19:00:13.050Z,2.03
2023-02-17T19:02:40.661Z,3.40
2023-02-17T19:05:09.217Z,2.30
2023-02-17T19:07:36.633Z,4.53
2023-02-17T19:10:07.685Z,2.80
2023-02-17T19:12:39.028Z,1.60
2023-02-17T19:15:07.195Z,3.33
2023-02-17T19:17:41.318Z,2.67
2023-02-17T19:20:10.704Z,6.70
2023-02-17T19:22:37.652Z,2.42
2023-02-17T19:25:04.843Z,3.28
2023-02-17T19:27:34.411Z,2.13
2023-02-17T19:30:01.148Z,3.50
2023-02-17T19:32:30.659Z,4.40
2023-02-17T19:34:57.611Z,3.67
2023-02-17T19:37:24.264Z,2.90
2023-02-17T19:39:53.096Z,2.95
2023-02-17T19:42:25.163Z,3.25
2023-02-17T19:44:51.817Z,2.63
2023-02-17T19:47:20.651Z,2.72
2023-02-17T19:49:49.887Z,3.72
2023-02-17T19:52:19.660Z,4.38
2023-02-17T19:54:48.225Z,3.10
2023-02-17T19:57:17.260Z,3.33
2023-02-17T19:59:44.509Z,2.75
2023-02-17T20:02:15.714Z,2.80
2023-02-17T20:04:42.933Z,2.88
2023-02-17T20:07:09.947Z,3.58
2023-02-17T20:09:39.131Z,3.45
2023-02-17T20:12:08.740Z,3.33
2023-02-17T20:14:38.428Z,2.97
2023-02-17T20:17:10.042Z,3.63
2023-02-17T20:19:40.440Z,4.75
2023-02-17T20:22:08.005Z,2.95
2023-02-17T20:24:36.756Z,3.33
2023-02-17T20:27:03.592Z,4.32
2023-02-17T20:29:36.334Z,3.53
2023-02-17T20:32:08.392Z,3.63
2023-02-17T20:34:40.795Z,3.60
2023-02-17T20:37:08.262Z,5.65
2023-02-17T20:39:35.852Z,2.97
2023-02-17T20:42:04.045Z,4.53
2023-02-17T20:44:33.195Z,5.47
2023-02-17T20:47:00.339Z,3.15
2023-02-17T20:49:32.123Z,3.60
2023-02-17T20:52:01.557Z,2.85
2023-02-17T20:54:28.393Z,3.53
2023-02-17T20:56:57.580Z,5.93
2023-02-17T20:59:24.339Z,4.28
2023-02-17T21:01:53.220Z,4.25
2023-02-17T21:04:19.839Z,4.43
2023-02-17T21:06:47.402Z,6.05
2023-02-17T21:09:16.977Z,4.20
2023-02-17T21:11:44.157Z,3.75
2023-02-17T21:14:11.105Z,5.13
2023-02-17T21:16:40.431Z,4.25
2023-02-17T21:19:07.345Z,4.90
2023-02-17T21:21:37.048Z,4.63
2023-02-17T21:24:04.347Z,3.65
2023-02-17T21:26:32.226Z,6.03
2023-02-17T21:29:03.711Z,3.70
2023-02-17T21:31:33.441Z,5.78
2023-02-17T21:34:00.359Z,5.32
2023-02-17T21:36:29.685Z,3.72
2023-02-17T21:38:57.078Z,4.63
2023-02-17T21:41:30.238Z,4.68
2023-02-17T21:44:15.764Z,5.95
2023-02-17T21:46:45.230Z,6.05
2023-02-17T21:49:12.381Z,5.28
2023-02-17T21:51:40.146Z,6.50
2023-02-17T21:54:07.770Z,4.68
2023-02-17T21:56:34.678Z,5.55
2023-02-17T21:59:01.379Z,5.05
2023-02-17T22:01:28.703Z,7.68
2023-02-17T22:03:57.524Z,6.38
2023-02-17T22:06:30.685Z,4.80
2023-02-17T22:08:59.101Z,6.68
2023-02-17T22:11:30.072Z,6.72
2023-02-17T22:13:58.966Z,6.15
2023-02-17T22:16:26.277Z,8.05
2023-02-17T22:18:53.118Z,6.50
2023-02-17T22:21:22.267Z,7.15
2023-02-17T22:23:49.243Z,6.03
2023-02-17T22:26:21.724Z,5.70
2023-02-17T22:28:51.313Z,5.75
2023-02-17T22:31:21.420Z,5.43
2023-02-17T22:33:48.182Z,6.25
2023-02-17T22:36:18.193Z,5.22
2023-02-17T22:38:45.069Z,6.65
2023-02-17T22:41:15.209Z,6.72
2023-02-17T22:43:42.740Z,6.53
2023-02-17T22:46:16.008Z,5.63
2023-02-17T22:48:44.803Z,6.13
2023-02-17T22:51:14.504Z,6.75
2023-02-17T22:53:41.196Z,6.05
2023-02-17T22:56:08.515Z,7.65
2023-02-17T22:58:36.120Z,7.35
2023-02-17T23:01:15.409Z,7.78
2023-02-17T23:03:43.381Z,5.22
2023-02-17T23:06:15.832Z,8.00
2023-02-17T23:08:43.265Z,5.65
2023-02-17T23:11:14.258Z,5.43
2023-02-17T23:13:41.275Z,6.38
2023-02-17T23:16:11.462Z,9.02
2023-02-17T23:18:38.264Z,7.65
2023-02-17T23:21:12.606Z,6.13
2023-02-17T23:23:39.534Z,6.95
2023-02-17T23:26:07.107Z,6.07
2023-02-17T23:28:34.082Z,6.18
2023-02-17T23:31:00.888Z,7.07
2023-02-17T23:33:27.680Z,6.57
2023-02-17T23:35:59.464Z,7.50
2023-02-17T23:38:26.271Z,9.55
2023-02-17T23:40:53.055Z,6.45
2023-02-17T23:43:20.141Z,7.45
2023-02-17T23:45:49.530Z,6.18
2023-02-17T23:48:16.669Z,6.30
2023-02-17T23:50:45.535Z,6.85
2023-02-17T23:53:12.171Z,8.20
2023-02-17T23:55:38.847Z,5.57
2023-02-17T23:58:07.691Z,7.38
